Time;durP1;ratioP1;P1;durP2;ratioP2;P2;SDS_P1;SDS_P2;PMS_P1;PMS_P2;Temp;Humidity;BMP_temperature;BMP_pressure;BME280_temperature;BME280_humidity;BME280_pressure;Samples;Min_cycle;Max_cycle;Signal;HPM_P1;HPM_P2
2021/09/07 00:00:16;;;;;;;27.75;20.45;;;;;;;16.14;81.86;101381.41;5042033;28;20026;-83
2021/09/07 00:02:42;;;;;;;23.33;19.02;;;;;;;16.07;81.34;101378.84;5048210;28;20029;-83
2021/09/07 00:05:10;;;;;;;23.55;20.20;;;;;;;16.01;82.26;101374.50;5031716;28;20418;-83
2021/09/07 00:07:36;;;;;;;21.52;18.38;;;;;;;15.95;82.39;101370.13;5030530;28;20045;-83
2021/09/07 00:10:02;;;;;;;21.67;16.52;;;;;;;15.98;81.86;101371.88;5049967;28;20044;-82
2021/09/07 00:12:29;;;;;;;21.30;16.65;;;;;;;16.04;81.28;101369.13;5047561;28;20034;-82
2021/09/07 00:14:56;;;;;;;20.38;16.60;;;;;;;16.08;81.07;101370.81;5032462;28;20033;-84
2021/09/07 00:17:22;;;;;;;20.30;17.58;;;;;;;15.98;81.51;101372.78;5038306;28;20037;-83
2021/09/07 00:19:47;;;;;;;23.27;19.33;;;;;;;15.94;81.62;101373.69;5033320;28;20063;-83
2021/09/07 00:22:13;;;;;;;21.40;17.92;;;;;;;15.98;81.73;101371.88;5029219;28;20052;-84
2021/09/07 00:24:38;;;;;;;19.55;16.80;;;;;;;15.98;82.11;101370.09;5049942;28;20111;-83
2021/09/07 00:27:04;;;;;;;20.25;15.52;;;;;;;15.99;81.71;101361.22;5047963;28;20037;-84
2021/09/07 00:29:29;;;;;;;22.40;17.90;;;;;;;16.05;82.09;101362.00;5049852;28;20044;-84
2021/09/07 00:31:55;;;;;;;19.92;16.85;;;;;;;16.12;81.36;101359.22;5048438;28;20059;-84
2021/09/07 00:34:23;;;;;;;20.35;17.80;;;;;;;16.16;81.63;101358.25;5039878;28;20026;-84
2021/09/07 00:36:48;;;;;;;21.42;17.88;;;;;;;16.12;81.64;101355.69;5046870;28;20513;-83
2021/09/07 00:39:14;;;;;;;22.25;18.30;;;;;;;16.15;81.47;101351.19;5038719;28;20492;-83
2021/09/07 00:41:40;;;;;;;22.27;19.70;;;;;;;16.20;81.32;101353.78;5047886;28;20080;-83
2021/09/07 00:44:23;;;;;;;23.05;18.40;;;;;;;16.21;81.57;101359.06;5037398;28;20475;-83
2021/09/07 00:46:56;;;;;;;22.63;18.33;;;;;;;16.28;81.01;101356.31;5047202;28;20052;-83
2021/09/07 00:49:23;;;;;;;24.70;18.73;;;;;;;16.35;80.60;101350.00;5038203;28;20038;-84
2021/09/07 00:51:50;;;;;;;23.80;19.52;;;;;;;16.33;80.79;101343.81;5049972;28;20705;-83
2021/09/07 00:54:18;;;;;;;25.38;19.08;;;;;;;16.37;80.54;101345.50;5028696;28;20110;-83
2021/09/07 00:56:43;;;;;;;20.85;18.55;;;;;;;16.43;79.88;101346.28;5020358;28;20047;-83
2021/09/07 00:59:10;;;;;;;22.60;18.67;;;;;;;16.46;79.90;101345.34;5040101;28;20116;-83
2021/09/07 01:01:35;;;;;;;21.25;17.98;;;;;;;16.48;79.80;101347.97;5028649;28;20041;-83
2021/09/07 01:04:02;;;;;;;21.52;18.02;;;;;;;16.49;80.30;101344.41;5047921;28;20037;-82
2021/09/07 01:06:30;;;;;;;23.60;18.75;;;;;;;16.43;80.13;101332.97;5047437;28;20033;-83
2021/09/07 01:08:57;;;;;;;20.73;16.88;;;;;;;16.40;80.30;101329.44;5038988;28;20040;-83
2021/09/07 01:11:24;;;;;;;24.77;18.13;;;;;;;16.30;81.03;101325.22;5045401;28;20033;-83
2021/09/07 01:13:50;;;;;;;21.17;17.60;;;;;;;16.22;81.62;101333.34;5047184;28;20558;-83
2021/09/07 01:16:15;;;;;;;21.08;18.33;;;;;;;16.26;81.34;101337.69;5047451;28;20088;-83
2021/09/07 01:18:41;;;;;;;23.15;18.52;;;;;;;16.23;81.61;101343.06;5046649;28;20034;-83
2021/09/07 01:21:14;;;;;;;24.00;17.15;;;;;;;16.21;81.67;101334.22;5030595;28;20527;-82
2021/09/07 01:23:41;;;;;;;21.92;18.42;;;;;;;16.09;82.51;101337.13;5046933;28;20145;-83
2021/09/07 01:26:08;;;;;;;24.05;18.95;;;;;;;16.10;82.24;101330.88;5026400;28;20120;-83
2021/09/07 01:28:34;;;;;;;24.80;20.52;;;;;;;16.16;82.03;101326.31;5044870;28;20041;-83
2021/09/07 01:31:06;;;;;;;24.23;17.42;;;;;;;16.17;82.02;101328.09;5047421;28;20059;-82
2021/09/07 01:33:32;;;;;;;21.42;18.20;;;;;;;16.17;81.63;101328.09;5028679;28;20040;-82
2021/09/07 01:35:58;;;;;;;20.75;16.58;;;;;;;16.20;81.88;101333.34;5047731;28;20040;-83
2021/09/07 01:38:24;;;;;;;18.70;15.90;;;;;;;16.27;81.22;101335.91;5020243;28;20038;-82
2021/09/07 01:40:50;;;;;;;19.80;16.67;;;;;;;16.31;81.07;101329.63;5047912;28;20017;-82
2021/09/07 01:43:16;;;;;;;19.33;16.27;;;;;;;16.27;80.55;101327.91;5107306;23;20057;-82
2021/09/07 01:45:45;;;;;;;22.08;18.90;;;;;;;16.29;80.70;101332.31;5027997;28;20415;-82
2021/09/07 01:48:12;;;;;;;20.85;18.42;;;;;;;16.27;80.64;101318.16;5025749;28;20049;-82
2021/09/07 01:50:38;;;;;;;19.52;16.75;;;;;;;16.28;80.73;101319.03;5027932;28;20044;-82
2021/09/07 01:53:03;;;;;;;22.08;16.73;;;;;;;16.30;80.73;101309.25;5013827;28;20041;-82
2021/09/07 01:55:29;;;;;;;23.42;17.48;;;;;;;16.33;80.33;101319.84;5034323;28;20402;-83
2021/09/07 01:57:54;;;;;;;21.35;17.80;;;;;;;16.35;80.16;101326.03;5010643;28;20037;-83
2021/09/07 02:00:20;;;;;;;19.33;16.48;;;;;;;16.38;80.12;101325.97;5007343;28;20030;-82
2021/09/07 02:02:46;;;;;;;20.13;16.00;;;;;;;16.35;80.25;101337.56;5034886;28;20029;-81
2021/09/07 02:05:12;;;;;;;20.95;17.75;;;;;;;16.33;80.06;101331.38;5032559;28;20109;-82
2021/09/07 02:07:37;;;;;;;21.52;17.13;;;;;;;16.27;80.67;101334.16;5025300;28;20049;-82
2021/09/07 02:10:04;;;;;;;21.88;17.08;;;;;;;16.29;80.52;101339.44;5025970;28;20034;-82
2021/09/07 02:12:29;;;;;;;20.45;17.52;;;;;;;16.31;80.60;101341.16;5007893;28;20042;-82
2021/09/07 02:14:55;;;;;;;20.27;16.92;;;;;;;16.39;80.08;101341.03;5024547;28;20086;-82
2021/09/07 02:17:24;;;;;;;18.85;15.23;;;;;;;16.41;79.92;101345.44;5025271;28;20036;-82
2021/09/07 02:19:52;;;;;;;19.42;15.80;;;;;;;16.44;79.76;101349.81;5013800;28;20042;-82
2021/09/07 02:22:18;;;;;;;19.65;17.15;;;;;;;16.38;79.78;101355.28;5017788;28;20037;-82
2021/09/07 02:24:45;;;;;;;19.42;16.65;;;;;;;16.35;79.66;101352.66;5024316;28;20056;-82
2021/09/07 02:27:11;;;;;;;20.10;17.23;;;;;;;16.30;79.90;101346.53;5025421;28;20029;-82
2021/09/07 02:29:37;;;;;;;19.48;16.40;;;;;;;16.31;80.05;101349.16;5026528;28;20414;-82
2021/09/07 02:32:03;;;;;;;20.63;16.15;;;;;;;16.32;80.11;101342.94;5023742;28;20049;-82
2021/09/07 02:34:29;;;;;;;18.25;16.30;;;;;;;16.35;79.86;101350.88;5008350;28;20038;-81
2021/09/07 02:36:55;;;;;;;20.35;17.80;;;;;;;16.36;79.53;101349.09;5023825;28;20026;-81
2021/09/07 02:39:20;;;;;;;22.80;16.88;;;;;;;16.34;79.73;101353.56;5027324;28;20027;-82
2021/09/07 02:41:46;;;;;;;21.08;15.43;;;;;;;16.33;79.17;101344.69;5007313;28;20046;-82
2021/09/07 02:44:11;;;;;;;21.65;18.08;;;;;;;16.31;79.44;101341.16;5036624;28;20059;-83
2021/09/07 02:46:37;;;;;;;21.50;17.35;;;;;;;16.34;79.09;101346.44;5026808;28;20036;-83
2021/09/07 02:49:03;;;;;;;22.00;17.92;;;;;;;16.36;78.73;101341.09;5045184;28;20046;-82
2021/09/07 02:51:28;;;;;;;20.27;16.80;;;;;;;16.42;78.74;101344.50;5045606;28;20036;-83
2021/09/07 02:53:54;;;;;;;20.25;16.40;;;;;;;16.42;78.55;101343.63;5044365;28;20037;-83
2021/09/07 02:56:19;;;;;;;22.52;16.25;;;;;;;16.43;78.25;101348.94;5044614;28;20454;-83
2021/09/07 02:58:47;;;;;;;18.63;15.63;;;;;;;16.48;78.24;101340.88;5034489;28;20439;-82
2021/09/07 03:01:12;;;;;;;19.55;16.17;;;;;;;16.49;78.17;101347.97;5046480;28;20029;-83
2021/09/07 03:03:39;;;;;;;22.85;16.00;;;;;;;16.47;78.42;101351.56;5044122;28;20037;-83
2021/09/07 03:06:04;;;;;;;19.13;15.93;;;;;;;16.46;78.79;101342.69;5049100;28;20116;-83
2021/09/07 03:08:30;;;;;;;22.08;16.88;;;;;;;16.44;78.63;101336.50;5029808;28;20044;-83
2021/09/07 03:10:56;;;;;;;26.05;21.38;;;;;;;16.36;79.18;101333.09;5026068;28;20099;-83
2021/09/07 03:13:24;;;;;;;24.40;18.85;;;;;;;16.31;79.18;101334.97;5047240;28;20159;-83
2021/09/07 03:15:49;;;;;;;26.45;21.42;;;;;;;16.33;79.18;101338.47;5042347;28;20060;-83
2021/09/07 03:18:17;;;;;;;21.15;18.35;;;;;;;16.31;78.98;101338.50;5037147;28;20056;-83
2021/09/07 03:20:42;;;;;;;22.00;17.10;;;;;;;16.24;79.52;101343.94;5044558;28;20385;-83
2021/09/07 03:23:08;;;;;;;21.10;18.02;;;;;;;16.25;79.65;101341.28;5035073;28;20105;-83
2021/09/07 03:25:33;;;;;;;21.20;16.42;;;;;;;16.25;79.70;101340.41;5037272;28;20138;-83
2021/09/07 03:27:59;;;;;;;21.50;18.05;;;;;;;16.19;80.07;101328.94;5043851;28;20025;-82
2021/09/07 03:30:27;;;;;;;19.48;16.27;;;;;;;16.24;79.75;101338.63;5045430;28;20037;-83
2021/09/07 03:32:52;;;;;;;19.70;17.35;;;;;;;16.27;79.15;101341.22;5044424;28;20390;-83
2021/09/07 03:35:18;;;;;;;20.60;16.90;;;;;;;16.31;78.92;101334.97;5046438;28;20037;-82
2021/09/07 03:37:46;;;;;;;24.85;19.92;;;;;;;16.33;78.69;101339.34;5048011;28;20053;-81
2021/09/07 03:40:13;;;;;;;24.35;20.17;;;;;;;16.32;78.94;101342.03;5051117;28;20040;-83
2021/09/07 03:42:39;;;;;;;21.02;18.00;;;;;;;16.27;79.02;101335.91;5048513;28;20087;-83
2021/09/07 03:45:08;;;;;;;21.17;18.30;;;;;;;16.18;79.33;101334.28;5048298;28;20037;-83
2021/09/07 03:47:34;;;;;;;29.30;19.30;;;;;;;16.18;79.31;101342.28;5033051;28;20033;-83
2021/09/07 03:50:01;;;;;;;22.13;17.70;;;;;;;16.25;79.28;101351.06;5052153;28;20043;-82
2021/09/07 03:52:27;;;;;;;22.02;16.83;;;;;;;16.30;78.94;101350.06;5037133;28;20029;-81
2021/09/07 03:54:52;;;;;;;21.00;16.88;;;;;;;16.33;78.58;101346.47;5050299;28;20057;-83
2021/09/07 03:57:18;;;;;;;20.85;18.60;;;;;;;16.34;78.00;101346.44;5046299;28;20445;-82
2021/09/07 03:59:44;;;;;;;20.50;16.23;;;;;;;16.35;78.26;101342.88;5049625;28;20028;-82
2021/09/07 04:02:09;;;;;;;19.35;15.80;;;;;;;16.33;78.31;101343.81;5034716;28;20060;-82
2021/09/07 04:04:34;;;;;;;22.35;16.90;;;;;;;16.31;77.98;101350.94;5053329;28;20037;-82
2021/09/07 04:07:00;;;;;;;20.63;17.08;;;;;;;16.27;78.37;101343.91;5047728;28;20083;-83
2021/09/07 04:09:27;;;;;;;22.40;19.30;;;;;;;16.24;78.73;101343.94;5048710;28;20108;-82
2021/09/07 04:11:53;;;;;;;24.42;19.65;;;;;;;16.20;78.92;101348.47;5030263;28;20045;-82
2021/09/07 04:14:18;;;;;;;22.77;17.13;;;;;;;16.22;78.79;101357.31;5287636;23;20045;-82
2021/09/07 04:16:44;;;;;;;19.55;15.32;;;;;;;16.14;79.36;101362.75;5046849;28;20038;-82
2021/09/07 04:19:14;;;;;;;19.92;15.70;;;;;;;16.11;79.30;101360.16;5047077;28;20124;-82
2021/09/07 04:21:40;;;;;;;23.20;16.83;;;;;;;16.09;79.06;101356.63;5040094;28;20020;-82
2021/09/07 04:29:25;;;;;;;24.15;16.63;;;;;;;16.10;79.50;101371.69;5037789;28;20037;-82
2021/09/07 04:31:50;;;;;;;22.30;17.88;;;;;;;16.10;79.23;101371.69;5037728;28;20056;-83
2021/09/07 04:34:15;;;;;;;21.38;15.65;;;;;;;16.13;78.80;101368.97;5011981;28;20104;-82
2021/09/07 04:36:41;;;;;;;18.95;15.02;;;;;;;16.18;78.66;101371.56;5015036;28;20037;-83
2021/09/07 04:39:06;;;;;;;21.02;16.63;;;;;;;16.20;78.36;101380.41;5008584;28;20052;-83
2021/09/07 04:41:32;;;;;;;20.27;16.15;;;;;;;16.14;78.35;101388.50;5010968;28;20025;-82
2021/09/07 04:43:58;;;;;;;22.30;16.73;;;;;;;16.06;78.77;101388.63;5017070;28;20032;-83
2021/09/07 04:46:25;;;;;;;20.52;16.23;;;;;;;16.05;78.60;101386.84;5031285;28;20470;-82
2021/09/07 04:48:54;;;;;;;20.38;17.17;;;;;;;16.07;78.73;101385.06;5025201;28;20076;-82
2021/09/07 04:51:23;;;;;;;20.80;15.93;;;;;;;16.12;78.30;101393.84;5015858;28;20474;-82
2021/09/07 04:53:49;;;;;;;20.75;16.65;;;;;;;16.15;78.60;101393.81;5008254;28;20041;-83
2021/09/07 04:56:15;;;;;;;20.88;16.65;;;;;;;16.14;78.40;101384.06;5015944;28;20047;-82
2021/09/07 04:58:40;;;;;;;21.15;16.63;;;;;;;16.12;78.50;101396.50;5022015;28;20068;-82
2021/09/07 05:01:06;;;;;;;25.27;18.02;;;;;;;16.03;78.86;101385.13;5028077;28;20470;-83
2021/09/07 05:32:51;;;;;;;;;;;;;;;;;;;;;
2021/09/07 05:53:34;;;;;;;21.20;16.83;;;;;;;16.40;78.55;101431.59;4973710;28;20045;-82
2021/09/07 06:12:16;;;;;;;;;;;;;;;;;;;;;
2021/09/07 06:17:53;;;;;;;23.45;17.45;;;;;;;16.84;77.53;101455.75;5044240;28;20140;-82
2021/09/07 06:35:26;;;;;;;22.00;17.40;;;;;;;17.14;75.95;101469.47;3170871;26;20042;-83
2021/09/07 06:37:53;;;;;;;19.20;15.90;;;;;;;17.23;75.72;101478.16;5044388;28;20040;-82
2021/09/07 06:40:19;;;;;;;22.27;17.88;;;;;;;17.18;75.34;101479.16;5042366;28;20048;-82
2021/09/07 06:42:44;;;;;;;21.02;17.17;;;;;;;17.19;75.25;101476.50;5042199;28;20037;-82
2021/09/07 06:45:10;;;;;;;22.25;16.30;;;;;;;17.25;74.81;101479.03;5044283;28;20033;-83
2021/09/07 06:47:35;;;;;;;21.60;17.33;;;;;;;17.33;75.00;101476.22;5041041;28;20048;-82
2021/09/07 06:50:01;;;;;;;21.02;16.20;;;;;;;17.37;74.57;101477.94;5023643;28;20035;-82
2021/09/07 06:52:28;;;;;;;20.67;16.05;;;;;;;17.41;74.17;101474.28;5035149;28;20441;-83
2021/09/07 06:54:53;;;;;;;19.25;16.23;;;;;;;17.48;74.37;101475.91;5058896;23;20414;-83
2021/09/07 06:57:19;;;;;;;21.33;17.85;;;;;;;17.64;73.51;101478.28;5035151;28;20112;-83
2021/09/07 06:59:44;;;;;;;19.45;15.85;;;;;;;17.66;73.68;101476.47;5053612;28;20402;-82
2021/09/07 07:02:09;;;;;;;18.30;15.38;;;;;;;17.78;73.36;101465.53;5052805;28;20028;-82
2021/09/07 07:04:34;;;;;;;21.83;16.67;;;;;;;17.94;72.72;101466.97;5044692;28;20104;-82
2021/09/07 07:07:00;;;;;;;21.92;17.52;;;;;;;18.06;72.44;101464.97;5042612;28;20033;-83
2021/09/07 07:09:25;;;;;;;22.23;17.80;;;;;;;18.08;72.21;101463.16;5042467;28;20041;-83
2021/09/07 07:11:50;;;;;;;22.70;17.55;;;;;;;18.13;72.09;101461.22;5044006;28;20032;-82
2021/09/07 08:13:38;;;;;;;23.45;19.05;;;;;;;19.10;68.76;101488.31;4350771;26;20054;-82
2021/09/07 08:16:04;;;;;;;20.60;16.90;;;;;;;19.01;69.14;101495.66;5013463;28;20484;-82
2021/09/07 08:18:29;;;;;;;24.80;18.58;;;;;;;18.92;70.04;101497.72;5013555;28;20037;-82
2021/09/07 08:20:57;;;;;;;22.05;17.90;;;;;;;18.99;69.20;101496.59;5013686;28;20175;-83
2021/09/07 09:03:34;;;;;;;;;;;;;;;;;;;;;
2021/09/07 09:51:12;;;;;;;15.02;10.48;;;;;;;21.43;53.90;101491.84;4954449;28;20141;-83
2021/09/07 09:57:59;;;;;;;13.63;10.18;;;;;;;21.49;52.91;101491.66;4971993;28;20038;-83
2021/09/07 10:04:19;;;;;;;14.07;11.25;;;;;;;21.68;53.50;101489.16;5072432;22;20061;-83
2021/09/07 10:06:50;;;;;;;15.18;11.65;;;;;;;21.72;53.24;101477.38;5037002;28;20407;-83
2021/09/07 10:09:17;;;;;;;14.75;10.38;;;;;;;21.83;53.94;101485.91;5042317;28;20049;-83
2021/09/07 10:11:47;;;;;;;14.88;11.07;;;;;;;21.91;53.05;101482.91;5046679;28;20047;-83
2021/09/07 10:14:14;;;;;;;11.32;9.43;;;;;;;21.96;52.66;101485.44;5039317;28;20095;-83
2021/09/07 10:16:48;;;;;;;18.08;10.50;;;;;;;21.84;52.67;101482.25;5017468;28;20049;-83
2021/09/07 10:19:46;;;;;;;14.52;10.98;;;;;;;21.79;53.06;101473.50;5037045;28;20034;-82
2021/09/07 10:25:52;;;;;;;15.48;11.70;;;;;;;21.95;52.86;101465.72;5010991;28;20176;-83
2021/09/07 10:28:45;;;;;;;14.73;11.32;;;;;;;22.12;53.32;101467.75;5017299;28;20056;-83
2021/09/07 10:31:12;;;;;;;23.85;19.23;;;;;;;22.30;53.03;101469.75;5031229;28;20091;-83
2021/09/07 10:33:38;;;;;;;13.57;11.02;;;;;;;22.49;52.10;101471.69;5015364;28;20034;-83
2021/09/07 10:36:14;;;;;;;14.02;10.90;;;;;;;22.62;52.88;101467.56;5035282;28;20045;-83
2021/09/07 10:38:48;;;;;;;15.90;11.63;;;;;;;22.71;51.06;101461.78;5034385;28;20045;-82
2021/09/07 10:41:36;;;;;;;15.63;10.95;;;;;;;22.60;51.75;101466.75;5035030;28;20048;-82
2021/09/07 10:44:06;;;;;;;15.25;10.52;;;;;;;22.66;51.31;101455.75;5001987;28;20046;-82
2021/09/07 10:46:54;;;;;;;16.88;11.52;;;;;;;22.94;51.74;101454.56;5017091;28;20041;-80
2021/09/07 10:49:40;;;;;;;14.40;11.13;;;;;;;23.20;50.66;101456.16;5013863;28;20045;-82
2021/09/07 10:52:09;;;;;;;17.45;11.07;;;;;;;23.27;49.99;101448.69;5022095;28;20098;-82
2021/09/07 10:54:53;;;;;;;13.43;10.25;;;;;;;23.34;50.36;101458.22;5034950;28;20029;-83
2021/09/07 10:57:52;;;;;;;13.80;11.00;;;;;;;23.21;49.47;101459.69;5016632;28;20046;-82
2021/09/07 11:00:17;;;;;;;14.23;9.90;;;;;;;23.08;50.29;101460.25;5031931;28;20069;-83
2021/09/07 11:02:44;;;;;;;14.15;9.88;;;;;;;23.10;49.79;101455.66;5034798;28;20041;-83
2021/09/07 11:05:34;;;;;;;11.05;9.00;;;;;;;23.08;49.06;101451.28;5013885;28;20043;-83
2021/09/07 11:08:13;;;;;;;12.70;10.15;;;;;;;23.15;50.27;101459.03;5025693;28;20045;-83
2021/09/07 11:10:43;;;;;;;16.42;11.15;;;;;;;23.08;49.76;101457.56;5012812;28;20045;-83
2021/09/07 11:13:29;;;;;;;13.15;10.02;;;;;;;23.18;50.36;101452.63;5038691;28;20060;-83
2021/09/07 11:15:58;;;;;;;14.18;10.75;;;;;;;23.05;49.22;101446.91;5010206;28;20060;-83
2021/09/07 11:18:27;;;;;;;16.30;9.52;;;;;;;23.06;48.76;101443.28;5014214;28;20629;-83
2021/09/07 11:20:54;;;;;;;13.13;9.27;;;;;;;23.08;48.65;101441.41;5015008;28;20466;-83
2021/09/07 11:23:23;;;;;;;12.60;8.77;;;;;;;23.14;49.28;101435.75;5037971;28;20033;-83
2021/09/07 11:25:59;;;;;;;14.02;9.35;;;;;;;23.33;47.73;101434.94;5016091;28;20155;-83
2021/09/07 11:28:24;;;;;;;10.68;8.82;;;;;;;23.54;47.56;101438.47;5015179;28;20049;-83
2021/09/07 11:30:52;;;;;;;12.50;9.63;;;;;;;23.69;47.21;101436.88;5034916;28;20411;-83
2021/09/07 11:33:25;;;;;;;15.65;11.20;;;;;;;23.83;47.30;101435.31;5119938;23;20075;-82
2021/09/07 11:35:54;;;;;;;18.27;11.73;;;;;;;24.22;46.95;101441.56;5054653;28;20048;-83
2021/09/07 11:38:25;;;;;;;12.55;8.90;;;;;;;24.59;45.29;101434.38;5036785;28;20033;-83
2021/09/07 11:41:12;;;;;;;11.75;8.60;;;;;;;24.85;44.59;101443.84;5053164;28;20029;-83
2021/09/07 11:43:47;;;;;;;14.50;11.13;;;;;;;24.88;43.25;101438.28;5028272;28;20468;-82
2021/09/07 11:46:17;;;;;;;19.17;10.48;;;;;;;25.03;44.81;101437.50;5026871;28;20069;-83
2021/09/07 11:48:48;;;;;;;14.50;11.38;;;;;;;25.19;43.69;101429.47;5044711;28;20489;-83
2021/09/07 11:51:17;;;;;;;12.93;11.50;;;;;;;25.18;43.81;101422.34;5043729;28;20033;-83
2021/09/07 11:53:44;;;;;;;12.98;10.23;;;;;;;25.45;42.99;101430.78;5042710;28;20794;-82
2021/09/07 11:56:18;;;;;;;14.25;10.10;;;;;;;25.68;42.38;101415.16;5026535;28;20100;-83
2021/09/07 11:58:44;;;;;;;14.10;10.05;;;;;;;25.53;42.57;101423.13;5040547;28;20501;-84
2021/09/07 12:01:18;;;;;;;12.68;9.85;;;;;;;25.75;41.83;101416.53;5048272;28;20029;-83
2021/09/07 12:03:59;;;;;;;13.05;9.85;;;;;;;25.92;40.92;101419.22;5007451;28;20029;-83
2021/09/07 12:06:44;;;;;;;12.18;10.25;;;;;;;25.87;42.16;101415.03;5048852;28;20066;-82
2021/09/07 12:09:16;;;;;;;12.57;9.20;;;;;;;26.17;42.36;101415.09;5028620;28;20033;-83
2021/09/07 12:11:44;;;;;;;15.48;10.25;;;;;;;26.64;40.80;101420.44;5044847;28;20029;-83
2021/09/07 12:14:16;;;;;;;10.52;9.25;;;;;;;26.91;40.09;101416.19;5046999;28;20056;-83
2021/09/07 12:16:50;;;;;;;11.50;9.35;;;;;;;26.82;39.12;101414.91;5045308;28;20157;-83
2021/09/07 12:19:28;;;;;;;11.50;8.38;;;;;;;26.40;40.83;101414.63;5049112;28;20032;-83
2021/09/07 12:22:07;;;;;;;11.10;8.32;;;;;;;26.44;41.10;101418.03;5057874;28;20044;-83
2021/09/07 12:24:33;;;;;;;11.35;8.57;;;;;;;26.61;39.82;101415.22;5048937;28;20029;-83
2021/09/07 12:26:59;;;;;;;13.27;9.48;;;;;;;26.85;39.40;101406.59;5056983;28;20572;-83
2021/09/07 12:29:24;;;;;;;15.48;11.07;;;;;;;27.14;39.45;101409.34;5038375;28;20049;-83
2021/09/07 12:32:01;;;;;;;13.43;10.07;;;;;;;27.32;39.81;101408.25;5038378;28;20048;-83
2021/09/07 12:34:26;;;;;;;13.40;10.10;;;;;;;27.65;39.21;101409.81;5018176;28;20129;-83
2021/09/07 12:36:52;;;;;;;12.65;9.93;;;;;;;28.07;37.61;101410.72;5048926;28;20072;-83
2021/09/07 12:39:19;;;;;;;10.57;8.93;;;;;;;28.25;37.35;101409.50;5047599;28;20040;-82
2021/09/07 12:41:45;;;;;;;12.73;9.00;;;;;;;28.34;36.10;101414.31;5047657;28;20033;-84
2021/09/07 12:44:13;;;;;;;12.10;8.75;;;;;;;28.91;34.54;101406.91;5028859;28;20029;-84
2021/09/07 12:46:39;;;;;;;9.52;8.18;;;;;;;29.07;34.43;101404.88;5020903;28;20038;-83
2021/09/07 12:49:04;;;;;;;11.45;9.65;;;;;;;29.28;34.50;101391.59;5050418;28;20067;-83
2021/09/07 12:51:30;;;;;;;11.25;8.32;;;;;;;29.42;34.37;101404.22;5047235;28;20044;-83
2021/09/07 12:53:59;;;;;;;8.85;7.47;;;;;;;29.45;34.70;101393.13;5021515;28;20045;-83
2021/09/07 12:56:29;;;;;;;10.25;8.55;;;;;;;29.67;34.23;101397.91;5028070;28;20038;-83
2021/09/07 12:58:57;;;;;;;12.13;9.18;;;;;;;29.46;34.40;101395.72;5033259;28;20029;-83
2021/09/07 13:01:24;;;;;;;11.45;8.07;;;;;;;28.58;34.66;101397.38;5041152;28;20088;-83
2021/09/07 13:03:51;;;;;;;12.43;10.98;;;;;;;28.59;35.77;101397.28;5028694;28;20044;-83
2021/09/07 13:06:18;;;;;;;10.88;9.13;;;;;;;28.07;35.62;101394.44;5025941;28;20059;-83
2021/09/07 13:08:45;;;;;;;11.35;9.15;;;;;;;27.15;37.97;101390.31;5051432;28;20079;-83
2021/09/07 13:11:11;;;;;;;9.57;7.45;;;;;;;26.75;38.66;101386.44;5050042;28;20203;-83
2021/09/07 13:13:37;;;;;;;12.52;7.93;;;;;;;26.28;39.00;101390.13;5030676;28;20033;-83
2021/09/07 13:16:02;;;;;;;8.95;7.05;;;;;;;26.10;38.44;101386.66;5047962;28;20178;-83
2021/09/07 13:18:29;;;;;;;9.63;6.68;;;;;;;25.77;39.75;101393.84;5038003;28;20041;-83
2021/09/07 13:20:56;;;;;;;7.53;6.57;;;;;;;26.02;40.08;101384.41;5046954;28;20037;-83
2021/09/07 13:23:22;;;;;;;13.38;7.90;;;;;;;26.83;38.00;101381.47;5020547;28;20045;-83
2021/09/07 13:25:47;;;;;;;9.95;7.45;;;;;;;27.59;37.93;101380.34;5030834;28;20044;-82
2021/09/07 13:28:14;;;;;;;10.75;7.28;;;;;;;28.21;35.96;101378.09;5047164;28;20065;-83
2021/09/07 13:30:40;;;;;;;11.50;7.60;;;;;;;28.63;35.98;101370.75;5048615;28;20048;-83
2021/09/07 13:33:05;;;;;;;9.65;7.95;;;;;;;28.78;34.31;101367.00;5048433;28;20040;-83
2021/09/07 13:35:30;;;;;;;9.38;7.53;;;;;;;28.79;33.56;101363.31;5052924;28;20172;-82
2021/09/07 13:37:56;;;;;;;10.57;8.55;;;;;;;28.99;34.58;101361.03;5049180;28;20029;-83
2021/09/07 13:40:21;;;;;;;8.85;7.38;;;;;;;29.31;33.43;101360.63;5028501;28;20526;-83
2021/09/07 13:42:46;;;;;;;11.80;8.70;;;;;;;29.74;32.35;101357.50;5053937;28;20514;-82
2021/09/07 13:45:12;;;;;;;9.98;8.07;;;;;;;30.07;32.08;101349.53;5046421;28;20052;-84
2021/09/07 13:47:37;;;;;;;11.13;8.27;;;;;;;29.91;32.85;101343.53;5052278;28;20034;-83
2021/09/07 13:50:03;;;;;;;10.50;8.68;;;;;;;29.94;32.98;101343.28;5028937;28;20040;-83
2021/09/07 13:52:28;;;;;;;9.15;7.43;;;;;;;30.63;32.19;101350.78;5030749;28;20482;-84
2021/09/07 13:54:53;;;;;;;9.45;6.38;;;;;;;30.78;29.80;101342.31;5048598;28;20064;-83
2021/09/07 13:57:19;;;;;;;12.88;8.88;;;;;;;30.92;30.20;101333.06;5037511;28;20041;-84
2021/09/07 13:59:44;;;;;;;8.63;6.88;;;;;;;31.32;29.71;101329.00;5049539;28;20043;-83
2021/09/07 14:02:09;;;;;;;12.02;8.68;;;;;;;31.57;29.63;101327.88;5036743;28;20041;-83
2021/09/07 14:04:35;;;;;;;9.02;7.25;;;;;;;31.89;29.50;101333.41;5048945;28;20037;-83
2021/09/07 14:07:00;;;;;;;8.13;7.32;;;;;;;32.00;29.73;101329.81;5046686;28;20147;-83
2021/09/07 14:09:25;;;;;;;9.52;7.97;;;;;;;32.08;29.50;101339.06;5051909;28;20473;-83
2021/09/07 14:11:51;;;;;;;11.30;8.10;;;;;;;31.88;29.14;101329.78;5047941;28;20032;-83
2021/09/07 14:14:16;;;;;;;11.75;8.80;;;;;;;31.44;29.74;101326.16;5019389;28;20080;-84
2021/09/07 14:16:42;;;;;;;11.77;8.68;;;;;;;31.59;30.28;101326.75;5033304;28;20396;-83
2021/09/07 14:19:07;;;;;;;8.82;7.53;;;;;;;31.72;30.18;101328.47;5052089;28;20047;-83
2021/09/07 14:21:33;;;;;;;8.50;7.15;;;;;;;31.81;29.25;101322.25;5046925;28;20128;-83
2021/09/07 14:23:58;;;;;;;10.55;6.57;;;;;;;31.73;28.81;101335.66;5046632;28;20068;-83
2021/09/07 14:26:24;;;;;;;7.97;6.95;;;;;;;31.43;30.11;101329.88;5045438;28;20033;-83
2021/09/07 14:28:49;;;;;;;8.32;6.10;;;;;;;30.86;29.46;101325.34;5047521;28;20047;-84
2021/09/07 14:31:15;;;;;;;9.35;6.70;;;;;;;30.69;29.85;101328.53;5034980;28;20102;-83
2021/09/07 14:33:40;;;;;;;7.70;6.00;;;;;;;30.88;29.44;101326.09;5043751;28;20152;-83
2021/09/07 14:36:06;;;;;;;9.38;6.80;;;;;;;31.07;30.25;101321.91;5039269;28;20036;-82
2021/09/07 14:38:31;;;;;;;11.40;8.27;;;;;;;30.27;31.74;101325.44;5028588;28;20605;-82
2021/09/07 14:40:56;;;;;;;11.38;7.43;;;;;;;29.42;32.76;101326.25;5029449;28;20033;-83
2021/09/07 14:43:22;;;;;;;9.02;6.55;;;;;;;29.31;32.81;101322.56;5045757;28;20040;-83
2021/09/07 14:45:47;;;;;;;9.73;7.22;;;;;;;29.06;32.98;101332.47;5045925;28;20095;-83
2021/09/07 14:48:15;;;;;;;9.85;6.88;;;;;;;28.85;32.80;101326.69;5046872;28;20037;-83
2021/09/07 14:50:40;;;;;;;9.20;6.90;;;;;;;28.34;34.43;101323.88;5045198;28;20068;-76
2021/09/07 14:53:06;;;;;;;7.90;6.43;;;;;;;28.61;34.93;101318.38;5038370;28;20045;-76
2021/09/07 14:55:31;;;;;;;7.38;6.57;;;;;;;29.58;32.66;101322.38;5042933;28;20039;-76
2021/09/07 14:57:56;;;;;;;8.10;6.38;;;;;;;29.09;34.23;101320.53;5042962;28;20067;-77
2021/09/07 15:00:22;;;;;;;9.07;6.97;;;;;;;28.65;34.15;101319.94;5030091;28;20037;-76
2021/09/07 15:02:47;;;;;;;8.98;6.50;;;;;;;29.10;32.56;101325.84;5042578;28;20021;-76
2021/09/07 15:05:12;;;;;;;7.53;6.15;;;;;;;29.64;31.96;101320.13;5034096;28;20119;-76
2021/09/07 15:07:38;;;;;;;7.50;6.70;;;;;;;29.89;31.43;101324.59;5025755;28;20037;-76
2021/09/07 15:10:03;;;;;;;8.25;6.53;;;;;;;30.58;31.03;101316.63;5044042;28;20037;-76
2021/09/07 15:12:29;;;;;;;10.60;6.75;;;;;;;30.74;29.67;101312.69;5040517;28;20029;-76
2021/09/07 15:14:54;;;;;;;7.82;6.82;;;;;;;31.07;29.70;101317.31;5039367;28;20487;-76
2021/09/07 15:17:19;;;;;;;10.27;7.10;;;;;;;31.20;29.40;101312.63;5026518;28;20073;-76
2021/09/07 15:19:44;;;;;;;10.77;6.68;;;;;;;31.04;29.45;101311.25;5041859;28;20033;-76
2021/09/07 15:22:10;;;;;;;10.52;7.05;;;;;;;30.08;30.46;101318.63;5040194;28;20041;-77